BVX132 KSAN-KSFO
Flight info
| Callsign | BVX132 |
|---|---|
| Flight time | 1h 8m |
| Altitude | 34000 |
| Route | PADRZ2 IKAYE RIZIN SPLNT STOKD SERFR SERFR4 |
| Aircraft | A320/M-SDE3FGHIRWY/LB1 |
Departure
| Time | 2026-04-24 00:54 |
|---|---|
| Airport | San Diego International Airport (KSAN) |
Arrival
| Time | 2026-04-24 02:02 |
|---|---|
| Airport | San Francisco International Airport (KSFO) |
| Time | Latitude | Longitude | Altitude | Speed | Heading |
|---|---|---|---|---|---|
| 2026-04-24 00:27 | 32.73338 | -117.20188 | 23 ft | 0 kts | 83° |
| 2026-04-24 00:45 | 32.73338 | -117.20189 | 23 ft | 1 kts | 83° |
| 2026-04-24 00:45 | 32.73336 | -117.20208 | 23 ft | 3 kts | 83° |
| 2026-04-24 00:45 | 32.73333 | -117.20232 | 23 ft | 3 kts | 83° |
| 2026-04-24 00:46 | 32.73330 | -117.20254 | 26 ft | 3 kts | 62° |
| 2026-04-24 00:46 | 32.73325 | -117.20264 | 24 ft | 2 kts | 351° |
| 2026-04-24 00:46 | 32.73316 | -117.20262 | 26 ft | 1 kts | 346° |
| 2026-04-24 00:46 | 32.73313 | -117.20261 | 26 ft | 0 kts | 346° |
| 2026-04-24 00:48 | 32.73314 | -117.20261 | 26 ft | 0 kts | 346° |
| 2026-04-24 00:48 | 32.73333 | -117.20267 | 23 ft | 7 kts | 345° |
| 2026-04-24 00:48 | 32.73408 | -117.20272 | 23 ft | 12 kts | 13° |
| 2026-04-24 00:48 | 32.73491 | -117.20246 | 23 ft | 14 kts | 16° |
| 2026-04-24 00:49 | 32.73543 | -117.20168 | 23 ft | 13 kts | 102° |
| 2026-04-24 00:49 | 32.73516 | -117.20058 | 25 ft | 16 kts | 106° |
| 2026-04-24 00:49 | 32.73479 | -117.19901 | 23 ft | 21 kts | 106° |
| 2026-04-24 00:49 | 32.73440 | -117.19740 | 24 ft | 21 kts | 106° |
| 2026-04-24 00:50 | 32.73397 | -117.19564 | 24 ft | 22 kts | 106° |
| 2026-04-24 00:50 | 32.73357 | -117.19400 | 24 ft | 20 kts | 106° |
| 2026-04-24 00:50 | 32.73320 | -117.19247 | 22 ft | 18 kts | 106° |
| 2026-04-24 00:50 | 32.73286 | -117.19106 | 25 ft | 17 kts | 106° |
| 2026-04-24 00:51 | 32.73242 | -117.18923 | 24 ft | 30 kts | 106° |
| 2026-04-24 00:51 | 32.73177 | -117.18655 | 28 ft | 36 kts | 106° |
| 2026-04-24 00:51 | 32.73105 | -117.18358 | 28 ft | 38 kts | 105° |
| 2026-04-24 00:51 | 32.73037 | -117.18078 | 27 ft | 32 kts | 106° |
| 2026-04-24 00:52 | 32.72977 | -117.17831 | 27 ft | 31 kts | 105° |
| 2026-04-24 00:52 | 32.72950 | -117.17712 | 26 ft | 11 kts | 93° |
| 2026-04-24 00:52 | 32.72984 | -117.17604 | 27 ft | 16 kts | 38° |
| 2026-04-24 00:52 | 32.73039 | -117.17656 | 26 ft | 0 kts | 286° |
| 2026-04-24 00:53 | 32.73039 | -117.17658 | 26 ft | 2 kts | 286° |
| 2026-04-24 00:53 | 32.73097 | -117.17901 | 27 ft | 75 kts | 285° |
| 2026-04-24 00:53 | 32.73320 | -117.18818 | 24 ft | 152 kts | 286° |
| 2026-04-24 00:54 | 32.73663 | -117.20211 | 286 ft | 192 kts | 286° |
| 2026-04-24 00:54 | 32.74106 | -117.21841 | 897 ft | 219 kts | 293° |
| 2026-04-24 00:54 | 32.74894 | -117.23510 | 1422 ft | 243 kts | 302° |
| 2026-04-24 00:54 | 32.75881 | -117.25192 | 2320 ft | 250 kts | 305° |
| 2026-04-24 00:55 | 32.76916 | -117.26872 | 3273 ft | 255 kts | 305° |
| 2026-04-24 00:55 | 32.77975 | -117.28595 | 4166 ft | 261 kts | 305° |
| 2026-04-24 00:55 | 32.79043 | -117.30366 | 5052 ft | 267 kts | 304° |
| 2026-04-24 00:55 | 32.80121 | -117.32171 | 6015 ft | 268 kts | 306° |
| 2026-04-24 00:56 | 32.81248 | -117.33954 | 6928 ft | 271 kts | 307° |
| 2026-04-24 00:56 | 32.82393 | -117.35710 | 7784 ft | 274 kts | 307° |
| 2026-04-24 00:56 | 32.83573 | -117.37503 | 8700 ft | 276 kts | 306° |
| 2026-04-24 00:56 | 32.84758 | -117.39309 | 9594 ft | 278 kts | 306° |
| 2026-04-24 00:57 | 32.85956 | -117.41148 | 10324 ft | 287 kts | 305° |
| 2026-04-24 00:57 | 32.87225 | -117.43112 | 10616 ft | 310 kts | 305° |
| 2026-04-24 00:57 | 32.89917 | -117.47296 | 11983 ft | 323 kts | 305° |
| 2026-04-24 00:58 | 32.91288 | -117.49430 | 12755 ft | 327 kts | 305° |
| 2026-04-24 00:58 | 32.92675 | -117.51587 | 13532 ft | 330 kts | 305° |
| 2026-04-24 00:58 | 32.94080 | -117.53770 | 14237 ft | 333 kts | 305° |
| 2026-04-24 00:58 | 32.95491 | -117.55965 | 14921 ft | 335 kts | 304° |
| 2026-04-24 00:59 | 32.96912 | -117.58181 | 15613 ft | 337 kts | 304° |
| 2026-04-24 00:59 | 32.98341 | -117.60409 | 16300 ft | 339 kts | 304° |
| 2026-04-24 00:59 | 32.99777 | -117.62653 | 16976 ft | 342 kts | 304° |
| 2026-04-24 00:59 | 33.01223 | -117.64915 | 17687 ft | 344 kts | 304° |
| 2026-04-24 01:00 | 33.02674 | -117.67183 | 18381 ft | 345 kts | 304° |
| 2026-04-24 01:00 | 33.04136 | -117.69469 | 18967 ft | 347 kts | 304° |
| 2026-04-24 01:00 | 33.05587 | -117.71737 | 19526 ft | 350 kts | 304° |
| 2026-04-24 01:00 | 33.07292 | -117.73894 | 20079 ft | 357 kts | 314° |
| 2026-04-24 01:01 | 33.09168 | -117.75793 | 20638 ft | 360 kts | 315° |
| 2026-04-24 01:01 | 33.11086 | -117.77733 | 21176 ft | 363 kts | 315° |
| 2026-04-24 01:01 | 33.13014 | -117.79689 | 21715 ft | 365 kts | 315° |
| 2026-04-24 01:01 | 33.14954 | -117.81664 | 22237 ft | 368 kts | 315° |
| 2026-04-24 01:02 | 33.16908 | -117.83657 | 22774 ft | 370 kts | 315° |
| 2026-04-24 01:02 | 33.18875 | -117.85666 | 23279 ft | 373 kts | 314° |
| 2026-04-24 01:02 | 33.20815 | -117.87748 | 23744 ft | 375 kts | 312° |
| 2026-04-24 01:02 | 33.22686 | -117.89913 | 24158 ft | 376 kts | 310° |
| 2026-04-24 01:03 | 33.24538 | -117.92149 | 24575 ft | 378 kts | 309° |
| 2026-04-24 01:03 | 33.26374 | -117.94407 | 24975 ft | 380 kts | 309° |
| 2026-04-24 01:03 | 33.28224 | -117.96679 | 25382 ft | 383 kts | 309° |
| 2026-04-24 01:03 | 33.30090 | -117.98952 | 25782 ft | 385 kts | 309° |
| 2026-04-24 01:04 | 33.31345 | -118.00468 | 26038 ft | 387 kts | 309° |
| 2026-04-24 01:04 | 33.33246 | -118.02753 | 26439 ft | 389 kts | 309° |
| 2026-04-24 01:04 | 33.35170 | -118.05050 | 26836 ft | 391 kts | 309° |
| 2026-04-24 01:04 | 33.37108 | -118.07357 | 27212 ft | 394 kts | 309° |
| 2026-04-24 01:05 | 33.39057 | -118.09678 | 27588 ft | 396 kts | 309° |
| 2026-04-24 01:05 | 33.41018 | -118.12023 | 27958 ft | 399 kts | 309° |
| 2026-04-24 01:05 | 33.42983 | -118.14381 | 28340 ft | 401 kts | 309° |
| 2026-04-24 01:05 | 33.44957 | -118.16751 | 28704 ft | 404 kts | 309° |
| 2026-04-24 01:06 | 33.46942 | -118.19135 | 29066 ft | 406 kts | 309° |
| 2026-04-24 01:06 | 33.48942 | -118.21538 | 29428 ft | 408 kts | 309° |
| 2026-04-24 01:06 | 33.50954 | -118.23958 | 29783 ft | 410 kts | 309° |
| 2026-04-24 01:06 | 33.52975 | -118.26391 | 30118 ft | 412 kts | 309° |
| 2026-04-24 01:07 | 33.55001 | -118.28831 | 30402 ft | 414 kts | 309° |
| 2026-04-24 01:07 | 33.57040 | -118.31285 | 30721 ft | 416 kts | 309° |
| 2026-04-24 01:07 | 33.59085 | -118.33746 | 31010 ft | 417 kts | 309° |
| 2026-04-24 01:07 | 33.61136 | -118.36219 | 31292 ft | 418 kts | 309° |
| 2026-04-24 01:08 | 33.63189 | -118.38705 | 31558 ft | 420 kts | 309° |
| 2026-04-24 01:08 | 33.65241 | -118.41189 | 31930 ft | 419 kts | 309° |
| 2026-04-24 01:08 | 33.67288 | -118.43662 | 32335 ft | 417 kts | 309° |
| 2026-04-24 01:08 | 33.69327 | -118.46126 | 32733 ft | 416 kts | 309° |
| 2026-04-24 01:09 | 33.71366 | -118.48589 | 33130 ft | 414 kts | 309° |
| 2026-04-24 01:09 | 33.73366 | -118.51010 | 33520 ft | 413 kts | 308° |
| 2026-04-24 01:09 | 33.75400 | -118.53478 | 33885 ft | 412 kts | 308° |
| 2026-04-24 01:10 | 33.79378 | -118.58302 | 33991 ft | 398 kts | 308° |
| 2026-04-24 01:10 | 33.83248 | -118.63003 | 33992 ft | 394 kts | 308° |
| 2026-04-24 01:11 | 33.87092 | -118.67692 | 33995 ft | 394 kts | 308° |
| 2026-04-24 01:11 | 33.90943 | -118.72396 | 33991 ft | 395 kts | 308° |
| 2026-04-24 01:12 | 33.94801 | -118.77109 | 33988 ft | 394 kts | 308° |
| 2026-04-24 01:12 | 33.98649 | -118.81813 | 33985 ft | 394 kts | 308° |
| 2026-04-24 01:13 | 34.02472 | -118.86488 | 33973 ft | 394 kts | 308° |
| 2026-04-24 01:13 | 34.06313 | -118.91197 | 33982 ft | 394 kts | 308° |
| 2026-04-24 01:14 | 34.10153 | -118.95915 | 34003 ft | 394 kts | 308° |
| 2026-04-24 01:14 | 34.13951 | -119.00683 | 33986 ft | 391 kts | 303° |
| 2026-04-24 01:15 | 34.16924 | -119.06098 | 33997 ft | 386 kts | 296° |
| 2026-04-24 01:15 | 34.19759 | -119.11599 | 33978 ft | 386 kts | 297° |
| 2026-04-24 01:16 | 34.22600 | -119.17103 | 33978 ft | 386 kts | 297° |
| 2026-04-24 01:16 | 34.25443 | -119.22615 | 33987 ft | 386 kts | 296° |
| 2026-04-24 01:17 | 34.28281 | -119.28138 | 33983 ft | 386 kts | 296° |
| 2026-04-24 01:17 | 34.31100 | -119.33635 | 33977 ft | 387 kts | 296° |
| 2026-04-24 01:18 | 34.33936 | -119.39173 | 33982 ft | 387 kts | 296° |
| 2026-04-24 01:18 | 34.36769 | -119.44727 | 33985 ft | 388 kts | 296° |
| 2026-04-24 01:19 | 34.39598 | -119.50289 | 33979 ft | 387 kts | 296° |
| 2026-04-24 01:19 | 34.42915 | -119.55475 | 33988 ft | 395 kts | 309° |
| 2026-04-24 01:20 | 34.46793 | -119.60217 | 33990 ft | 396 kts | 308° |
| 2026-04-24 01:20 | 34.50656 | -119.64975 | 33989 ft | 395 kts | 308° |
| 2026-04-24 01:21 | 34.54519 | -119.69734 | 33997 ft | 396 kts | 308° |
| 2026-04-24 01:21 | 34.58390 | -119.74497 | 33988 ft | 396 kts | 308° |
| 2026-04-24 01:22 | 34.62254 | -119.79261 | 33987 ft | 396 kts | 308° |
| 2026-04-24 01:22 | 34.66116 | -119.84047 | 33984 ft | 396 kts | 308° |
| 2026-04-24 01:23 | 34.69939 | -119.88802 | 33988 ft | 396 kts | 308° |
| 2026-04-24 01:23 | 34.73793 | -119.93590 | 34011 ft | 395 kts | 308° |
| 2026-04-24 01:24 | 34.77644 | -119.98365 | 34008 ft | 395 kts | 308° |
| 2026-04-24 01:24 | 34.81480 | -120.03135 | 34012 ft | 395 kts | 308° |
| 2026-04-24 01:25 | 34.85332 | -120.07932 | 34009 ft | 395 kts | 308° |
| 2026-04-24 01:25 | 34.89170 | -120.12719 | 33990 ft | 395 kts | 308° |
| 2026-04-24 01:26 | 34.92998 | -120.17499 | 34020 ft | 394 kts | 308° |
| 2026-04-24 01:26 | 34.96828 | -120.22290 | 34010 ft | 394 kts | 308° |
| 2026-04-24 01:27 | 35.00650 | -120.27076 | 34004 ft | 394 kts | 308° |
| 2026-04-24 01:27 | 35.04465 | -120.31870 | 34005 ft | 393 kts | 308° |
| 2026-04-24 01:28 | 35.08256 | -120.36640 | 34020 ft | 394 kts | 308° |
| 2026-04-24 01:28 | 35.12202 | -120.41305 | 34020 ft | 396 kts | 311° |
| 2026-04-24 01:29 | 35.16307 | -120.45803 | 34034 ft | 397 kts | 312° |
| 2026-04-24 01:29 | 35.20416 | -120.50313 | 34035 ft | 396 kts | 312° |
| 2026-04-24 01:30 | 35.24482 | -120.54863 | 34048 ft | 396 kts | 311° |
| 2026-04-24 01:30 | 35.28530 | -120.59426 | 34054 ft | 395 kts | 311° |
| 2026-04-24 01:31 | 35.32576 | -120.63986 | 34047 ft | 395 kts | 311° |
| 2026-04-24 01:31 | 35.36591 | -120.68507 | 34041 ft | 394 kts | 311° |
| 2026-04-24 01:32 | 35.40625 | -120.73069 | 34063 ft | 394 kts | 311° |
| 2026-04-24 01:32 | 35.44653 | -120.77631 | 34064 ft | 393 kts | 311° |
| 2026-04-24 01:33 | 35.48708 | -120.82151 | 34067 ft | 396 kts | 316° |
| 2026-04-24 01:33 | 35.53075 | -120.86206 | 34062 ft | 396 kts | 317° |
| 2026-04-24 01:34 | 35.57483 | -120.90291 | 34077 ft | 396 kts | 317° |
| 2026-04-24 01:34 | 35.59677 | -120.92325 | 33931 ft | 394 kts | 317° |
| 2026-04-24 01:34 | 35.61842 | -120.94330 | 33658 ft | 388 kts | 317° |
| 2026-04-24 01:34 | 35.63991 | -120.96326 | 33388 ft | 385 kts | 317° |
| 2026-04-24 01:35 | 35.66123 | -120.98310 | 33121 ft | 383 kts | 317° |
| 2026-04-24 01:35 | 35.68246 | -121.00289 | 32853 ft | 382 kts | 317° |
| 2026-04-24 01:35 | 35.70359 | -121.02261 | 32588 ft | 381 kts | 317° |
| 2026-04-24 01:35 | 35.72466 | -121.04230 | 32326 ft | 379 kts | 317° |
| 2026-04-24 01:36 | 35.74564 | -121.06189 | 32088 ft | 377 kts | 317° |
| 2026-04-24 01:36 | 35.76647 | -121.08129 | 31845 ft | 375 kts | 317° |
| 2026-04-24 01:36 | 35.78725 | -121.10065 | 31586 ft | 373 kts | 317° |
| 2026-04-24 01:36 | 35.80784 | -121.11989 | 31333 ft | 371 kts | 317° |
| 2026-04-24 01:37 | 35.82837 | -121.13907 | 31088 ft | 370 kts | 317° |
| 2026-04-24 01:37 | 35.84881 | -121.15816 | 30839 ft | 368 kts | 317° |
| 2026-04-24 01:37 | 35.86921 | -121.17727 | 30590 ft | 367 kts | 317° |
| 2026-04-24 01:37 | 35.88941 | -121.19620 | 30361 ft | 365 kts | 318° |
| 2026-04-24 01:38 | 35.90936 | -121.21493 | 30139 ft | 364 kts | 318° |
| 2026-04-24 01:38 | 35.92943 | -121.23378 | 29866 ft | 362 kts | 318° |
| 2026-04-24 01:38 | 35.94940 | -121.25253 | 29579 ft | 360 kts | 318° |
| 2026-04-24 01:38 | 35.96930 | -121.27126 | 29306 ft | 359 kts | 318° |
| 2026-04-24 01:39 | 35.98905 | -121.28988 | 29027 ft | 357 kts | 318° |
| 2026-04-24 01:39 | 36.00880 | -121.30849 | 28759 ft | 356 kts | 318° |
| 2026-04-24 01:39 | 36.02851 | -121.32708 | 28495 ft | 355 kts | 318° |
| 2026-04-24 01:39 | 36.04812 | -121.34554 | 28226 ft | 353 kts | 318° |
| 2026-04-24 01:40 | 36.06768 | -121.36381 | 27961 ft | 353 kts | 320° |
| 2026-04-24 01:40 | 36.08836 | -121.38027 | 27724 ft | 353 kts | 323° |
| 2026-04-24 01:40 | 36.10919 | -121.39644 | 27464 ft | 352 kts | 323° |
| 2026-04-24 01:40 | 36.12989 | -121.41254 | 27210 ft | 352 kts | 323° |
| 2026-04-24 01:41 | 36.15059 | -121.42865 | 26950 ft | 350 kts | 323° |
| 2026-04-24 01:41 | 36.17119 | -121.44468 | 26701 ft | 349 kts | 323° |
| 2026-04-24 01:41 | 36.19166 | -121.46064 | 26450 ft | 347 kts | 323° |
| 2026-04-24 01:41 | 36.21210 | -121.47664 | 26210 ft | 346 kts | 323° |
| 2026-04-24 01:42 | 36.23242 | -121.49260 | 25969 ft | 345 kts | 323° |
| 2026-04-24 01:42 | 36.25265 | -121.50851 | 25730 ft | 344 kts | 323° |
| 2026-04-24 01:42 | 36.27286 | -121.52433 | 25477 ft | 344 kts | 323° |
| 2026-04-24 01:42 | 36.29310 | -121.54015 | 25241 ft | 343 kts | 323° |
| 2026-04-24 01:43 | 36.31302 | -121.55575 | 25007 ft | 342 kts | 323° |
| 2026-04-24 01:43 | 36.33311 | -121.57149 | 24772 ft | 341 kts | 323° |
| 2026-04-24 01:43 | 36.35319 | -121.58722 | 24533 ft | 341 kts | 323° |
| 2026-04-24 01:43 | 36.37321 | -121.60294 | 24297 ft | 340 kts | 323° |
| 2026-04-24 01:44 | 36.39322 | -121.61867 | 24081 ft | 339 kts | 323° |
| 2026-04-24 01:44 | 36.41311 | -121.63431 | 23857 ft | 338 kts | 323° |
| 2026-04-24 01:44 | 36.43295 | -121.64995 | 23640 ft | 337 kts | 323° |
| 2026-04-24 01:44 | 36.45265 | -121.66553 | 23369 ft | 336 kts | 323° |
| 2026-04-24 01:45 | 36.47238 | -121.68113 | 23097 ft | 335 kts | 324° |
| 2026-04-24 01:45 | 36.49201 | -121.69664 | 22836 ft | 334 kts | 324° |
| 2026-04-24 01:45 | 36.51164 | -121.71211 | 22570 ft | 334 kts | 324° |
| 2026-04-24 01:45 | 36.53123 | -121.72754 | 22307 ft | 333 kts | 324° |
| 2026-04-24 01:46 | 36.55080 | -121.74296 | 22044 ft | 332 kts | 324° |
| 2026-04-24 01:46 | 36.57031 | -121.75834 | 21782 ft | 332 kts | 324° |
| 2026-04-24 01:46 | 36.58981 | -121.77376 | 21526 ft | 331 kts | 324° |
| 2026-04-24 01:46 | 36.60928 | -121.78918 | 21279 ft | 332 kts | 325° |
| 2026-04-24 01:47 | 36.62847 | -121.80440 | 21027 ft | 331 kts | 325° |
| 2026-04-24 01:47 | 36.64817 | -121.81999 | 20740 ft | 331 kts | 325° |
| 2026-04-24 01:47 | 36.66101 | -121.83016 | 20587 ft | 331 kts | 325° |
| 2026-04-24 01:47 | 36.68666 | -121.85055 | 20267 ft | 328 kts | 325° |
| 2026-04-24 01:48 | 36.70582 | -121.86579 | 19897 ft | 325 kts | 325° |
| 2026-04-24 01:48 | 36.72492 | -121.88096 | 19508 ft | 325 kts | 326° |
| 2026-04-24 01:48 | 36.73838 | -121.88998 | 19220 ft | 326 kts | 333° |
| 2026-04-24 01:48 | 36.75988 | -121.89948 | 18775 ft | 329 kts | 345° |
| 2026-04-24 01:49 | 36.78225 | -121.90567 | 18297 ft | 331 kts | 346° |
| 2026-04-24 01:49 | 36.80479 | -121.91184 | 17812 ft | 331 kts | 347° |
| 2026-04-24 01:49 | 36.82690 | -121.91792 | 17405 ft | 329 kts | 347° |
| 2026-04-24 01:49 | 36.84952 | -121.92416 | 17025 ft | 326 kts | 346° |
| 2026-04-24 01:50 | 36.87125 | -121.93021 | 16673 ft | 324 kts | 347° |
| 2026-04-24 01:50 | 36.89319 | -121.93638 | 16284 ft | 323 kts | 346° |
| 2026-04-24 01:50 | 36.91502 | -121.94257 | 15921 ft | 321 kts | 347° |
| 2026-04-24 01:50 | 36.93676 | -121.94874 | 15572 ft | 319 kts | 346° |
| 2026-04-24 01:51 | 36.95812 | -121.95502 | 15037 ft | 314 kts | 345° |
| 2026-04-24 01:51 | 36.97904 | -121.96245 | 14428 ft | 310 kts | 343° |
| 2026-04-24 01:51 | 36.99955 | -121.97051 | 13824 ft | 307 kts | 342° |
| 2026-04-24 01:51 | 37.01972 | -121.97872 | 13334 ft | 301 kts | 342° |
| 2026-04-24 01:52 | 37.03964 | -121.98679 | 12923 ft | 300 kts | 343° |
| 2026-04-24 01:52 | 37.05917 | -121.99463 | 12515 ft | 297 kts | 343° |
| 2026-04-24 01:52 | 37.07897 | -122.00249 | 12107 ft | 299 kts | 343° |
| 2026-04-24 01:52 | 37.09879 | -122.01030 | 11755 ft | 297 kts | 343° |
| 2026-04-24 01:53 | 37.11849 | -122.01801 | 11339 ft | 297 kts | 343° |
| 2026-04-24 01:53 | 37.13817 | -122.02571 | 11013 ft | 295 kts | 343° |
| 2026-04-24 01:53 | 37.15761 | -122.03333 | 10675 ft | 292 kts | 344° |
| 2026-04-24 01:53 | 37.17705 | -122.04094 | 10288 ft | 292 kts | 344° |
| 2026-04-24 01:54 | 37.19620 | -122.04846 | 10076 ft | 285 kts | 344° |
| 2026-04-24 01:54 | 37.21493 | -122.05584 | 9809 ft | 279 kts | 344° |
| 2026-04-24 01:54 | 37.23338 | -122.06310 | 9495 ft | 276 kts | 344° |
| 2026-04-24 01:54 | 37.25171 | -122.07028 | 9106 ft | 276 kts | 343° |
| 2026-04-24 01:55 | 37.27002 | -122.07746 | 8731 ft | 274 kts | 343° |
| 2026-04-24 01:55 | 37.28819 | -122.08459 | 8352 ft | 273 kts | 343° |
| 2026-04-24 01:55 | 37.30625 | -122.09170 | 7990 ft | 272 kts | 343° |
| 2026-04-24 01:55 | 37.32429 | -122.09882 | 7601 ft | 271 kts | 343° |
| 2026-04-24 01:56 | 37.34227 | -122.10592 | 6969 ft | 279 kts | 343° |
| 2026-04-24 01:56 | 37.36116 | -122.11333 | 6329 ft | 288 kts | 342° |
| 2026-04-24 01:56 | 37.38025 | -122.12080 | 5879 ft | 286 kts | 343° |
| 2026-04-24 01:56 | 37.39924 | -122.12767 | 5550 ft | 281 kts | 344° |
| 2026-04-24 01:57 | 37.41793 | -122.13405 | 5217 ft | 276 kts | 345° |
| 2026-04-24 01:57 | 37.43633 | -122.14021 | 4894 ft | 271 kts | 345° |
| 2026-04-24 01:57 | 37.45435 | -122.14623 | 4560 ft | 266 kts | 345° |
| 2026-04-24 01:57 | 37.47210 | -122.15206 | 4239 ft | 260 kts | 345° |
| 2026-04-24 01:58 | 37.48949 | -122.15770 | 3926 ft | 255 kts | 345° |
| 2026-04-24 01:58 | 37.50650 | -122.16322 | 3610 ft | 250 kts | 344° |
| 2026-04-24 01:58 | 37.52293 | -122.16931 | 3395 ft | 242 kts | 335° |
| 2026-04-24 01:58 | 37.53664 | -122.18068 | 3151 ft | 232 kts | 315° |
| 2026-04-24 01:59 | 37.54585 | -122.19640 | 2877 ft | 217 kts | 297° |
| 2026-04-24 01:59 | 37.55269 | -122.21266 | 2606 ft | 211 kts | 297° |
| 2026-04-24 01:59 | 37.55952 | -122.22882 | 2344 ft | 204 kts | 297° |
| 2026-04-24 01:59 | 37.56601 | -122.24421 | 2070 ft | 193 kts | 297° |
| 2026-04-24 02:00 | 37.57214 | -122.25873 | 1805 ft | 184 kts | 295° |
| 2026-04-24 02:00 | 37.57810 | -122.27290 | 1555 ft | 181 kts | 297° |
| 2026-04-24 02:00 | 37.58396 | -122.28681 | 1313 ft | 179 kts | 297° |
| 2026-04-24 02:00 | 37.58973 | -122.30052 | 1091 ft | 173 kts | 297° |
| 2026-04-24 02:01 | 37.59516 | -122.31341 | 877 ft | 158 kts | 296° |
| 2026-04-24 02:01 | 37.59992 | -122.32472 | 656 ft | 137 kts | 296° |
| 2026-04-24 02:01 | 37.60421 | -122.33492 | 470 ft | 126 kts | 295° |
| 2026-04-24 02:01 | 37.60822 | -122.34446 | 309 ft | 122 kts | 296° |
| 2026-04-24 02:02 | 37.61216 | -122.35386 | 146 ft | 120 kts | 295° |
| 2026-04-24 02:02 | 37.61606 | -122.36315 | 19 ft | 115 kts | 297° |
| 2026-04-24 02:02 | 37.61907 | -122.37033 | 16 ft | 71 kts | 298° |
| 2026-04-24 02:02 | 37.62079 | -122.37442 | 16 ft | 37 kts | 298° |
| 2026-04-24 02:03 | 37.62153 | -122.37686 | 19 ft | 4 kts | 271° |
| 2026-04-24 02:03 | 37.62097 | -122.37755 | 20 ft | 8 kts | 186° |
| 2026-04-24 02:03 | 37.62053 | -122.37809 | 24 ft | 11 kts | 231° |
| 2026-04-24 02:04 | 37.61969 | -122.37931 | 22 ft | 17 kts | 226° |
| 2026-04-24 02:04 | 37.61925 | -122.37982 | 21 ft | 9 kts | 212° |
| 2026-04-24 02:04 | 37.61919 | -122.37986 | 23 ft | 0 kts | 208° |
| 2026-04-24 02:05 | 37.61853 | -122.37986 | 21 ft | 16 kts | 161° |
| 2026-04-24 02:05 | 37.61745 | -122.37948 | 18 ft | 17 kts | 179° |
| 2026-04-24 02:05 | 37.61622 | -122.37992 | 14 ft | 21 kts | 208° |
| 2026-04-24 02:05 | 37.61541 | -122.38090 | 13 ft | 13 kts | 259° |
| 2026-04-24 02:06 | 37.61564 | -122.38187 | 15 ft | 11 kts | 252° |
| 2026-04-24 02:06 | 37.61536 | -122.38222 | 15 ft | 2 kts | 221° |
| 2026-04-24 02:06 | 37.61536 | -122.38223 | 15 ft | 0 kts | 220° |